Tourist.f.b.terzo — IQAQ — position and weather

sailwx.info

Track history (hours):
 
Tides and Currents Weather Stations Pressure Air Temp Water Temp Dewpoint Dewpoint Depression Visibility Wind Speed Wind Dir Waves Ship Positions

Tourist.f.b.terzo

Last reported at 2015-Mar-04 14:33 UTC. Time now 2015-Mar-04 16:52 UTC.
Position N 40°45' E 013°54'.

Length 53 m; draft 1.8 m.

Type: Ship. MMSI: 247048900.

Date/timePositionNaut miles runAvg speedWind from/ knotsBaromVisibWave heightAir tempDewpointWater temp
2015-Mar-04 14:33N 40°45' E 013°54'0 0.0
2015-Mar-04 13:33N 40°45' E 013°54'0 0.0
2015-Mar-04 12:32N 40°45' E 013°54'0 0.0
2015-Mar-04 11:33N 40°45' E 013°54'1 0.8
2015-Mar-04 10:33N 40°46' E 013°55'6 6.5
2015-Mar-04 09:33N 40°46' E 014°04'4 3.9
2015-Mar-04 08:33N 40°49' E 014°07'5 5.4
2015-Mar-04 07:33N 40°46' E 014°02'5 5.5
2015-Mar-04 06:33N 40°45' E 013°54'6 6.4
2015-Mar-04 05:33N 40°46' E 014°03'4 3.9
2015-Mar-04 04:32N 40°49' E 014°06'7 7.2
2015-Mar-04 03:33N 40°46' E 013°58'0 0.3
2015-Mar-04 02:33N 40°46' E 013°58'6 6.2
2015-Mar-04 01:33N 40°47' E 014°06'1 0.8
2015-Mar-04 00:33N 40°46' E 014°05'8 8.1
2015-Mar-03 23:33N 40°45' E 013°54'0 0.0
2015-Mar-03 16:33N 40°45' E 013°54'0 0.0
2015-Mar-03 15:33N 40°45' E 013°54'0 0.0
2015-Mar-03 14:33N 40°45' E 013°54'0 0.0
2015-Mar-03 13:33N 40°45' E 013°54'0 0.0
2015-Mar-03 12:33N 40°45' E 013°54'0 0.0
2015-Mar-03 11:33N 40°45' E 013°54'1 0.8
2015-Mar-03 10:33N 40°45' E 013°55'8 8.2
2015-Mar-03 09:33N 40°47' E 014°06'0 0.1
2015-Mar-03 08:33N 40°47' E 014°06'6 5.8
2015-Mar-03 07:33N 40°46' E 013°59'1 0.5
2015-Mar-03 06:32N 40°46' E 013°59'6 5.8
2015-Mar-03 05:33N 40°48' E 014°06'1 1.1
2015-Mar-03 04:33N 40°47' E 014°06'8 8.2
2015-Mar-03 03:33N 40°45' E 013°55'4 3.6
2015-Mar-03 02:33N 40°46' E 013°60'6 5.6
2015-Mar-03 01:32N 40°49' E 014°06'4 3.9
2015-Mar-03 00:33N 40°46' E 014°03'6 6.4
2015-Mar-02 23:33N 40°45' E 013°55'0 0.0
2015-Mar-02 14:05N 40°45' E 013°54'0 0.0
2015-Mar-02 12:33N 40°45' E 013°54'0 0.0
2015-Mar-02 11:33N 40°45' E 013°54'3 2.9
2015-Mar-02 10:33N 40°46' E 013°58'7 7.1
2015-Mar-02 09:33N 40°49' E 014°06'10 1.0
2015-Mar-01 23:33N 40°45' E 013°55'0 0.0
2015-Feb-28 10:13N 40°45' E 013°54'0 0.0
2015-Feb-28 09:33N 40°45' E 013°54'5 5.5
2015-Feb-28 08:33N 40°47' E 014°01'5 5.1
2015-Feb-28 07:33N 40°49' E 014°07'0 0.0
2015-Feb-28 06:33N 40°49' E 014°07'3 3.5
2015-Feb-28 05:33N 40°46' E 014°05'3 2.7
2015-Feb-28 04:33N 40°49' E 014°06'4 4.0
2015-Feb-28 03:33N 40°47' E 014°02'6 6.0
2015-Feb-28 02:34N 40°45' E 013°54'8 7.8
2015-Feb-28 01:34N 40°46' E 014°05'1 0.7
2015-Feb-28 00:34N 40°47' E 014°06'9 8.5
2015-Feb-27 23:33N 40°45' E 013°55'0 0.0
2015-Feb-27 18:33N 40°45' E 013°54'0 0.0
2015-Feb-27 17:33N 40°45' E 013°54'0 0.0
2015-Feb-27 16:33N 40°45' E 013°54'0 0.0
2015-Feb-27 15:33N 40°45' E 013°54'0 0.0
2015-Feb-27 14:33N 40°45' E 013°54'0 0.0
2015-Feb-27 13:33N 40°45' E 013°54'0 0.0
2015-Feb-27 12:33N 40°45' E 013°54'0 0.0
2015-Feb-27 11:33N 40°45' E 013°54'3 2.9
2015-Feb-27 10:32N 40°46' E 013°58'8 7.6
2015-Feb-27 09:33N 40°49' E 014°07'0 0.1
2015-Feb-27 08:33N 40°49' E 014°07'5 5.2
2015-Feb-27 07:33N 40°46' E 014°02'4 4.3
2015-Feb-27 06:33N 40°46' E 013°56'7 7.4
2015-Feb-27 05:33N 40°47' E 014°06'1 0.9
2015-Feb-27 04:32N 40°48' E 014°06'8 7.7
2015-Feb-27 03:30N 40°46' E 013°56'3 2.8
2015-Feb-27 02:33N 40°46' E 013°59'6 5.7
2015-Feb-27 01:33N 40°48' E 014°06'3 2.7
2015-Feb-27 00:33N 40°46' E 014°04'6 6.5
2015-Feb-26 23:33N 40°45' E 013°55'1 0.2
2015-Feb-26 18:34N 40°45' E 013°54'0 0.0
2015-Feb-26 17:33N 40°45' E 013°54'0 0.0
2015-Feb-26 16:33N 40°45' E 013°54'0 0.0
2015-Feb-26 15:33N 40°45' E 013°54'0 0.0
2015-Feb-26 14:33N 40°45' E 013°54'0 0.0
2015-Feb-26 13:34N 40°45' E 013°54'0 0.0
2015-Feb-26 12:34N 40°45' E 013°54'0 0.0
2015-Feb-26 11:33N 40°45' E 013°54'0 0.0
2015-Feb-26 10:33N 40°45' E 013°54'9 8.7
2015-Feb-26 09:33N 40°47' E 014°06'2 2.3
2015-Feb-26 08:32N 40°49' E 014°06'5 5.4
2015-Feb-26 07:33N 40°46' E 014°00'3 3.2
2015-Feb-26 06:33N 40°46' E 013°56'7 7.1
2015-Feb-26 05:33N 40°46' E 014°05'1 1.2
2015-Feb-26 04:33N 40°48' E 014°06'8 8.0
2015-Feb-26 03:33N 40°45' E 013°56'3 2.9
2015-Feb-26 02:33N 40°46' E 013°60'6 6.0
2015-Feb-26 01:33N 40°49' E 014°06'5 4.7
2015-Feb-26 00:33N 40°46' E 014°02'6 5.5
2015-Feb-25 23:33N 40°45' E 013°54'0 0.0
2015-Feb-25 22:33N 40°45' E 013°54'0 0.0
2015-Feb-25 21:33N 40°45' E 013°54'0 0.0
2015-Feb-25 12:31N 40°45' E 013°54'0 0.0
2015-Feb-25 11:33N 40°45' E 013°54'6 5.9
2015-Feb-25 10:33N 40°46' E 014°02'5 4.9
2015-Feb-25 09:33N 40°49' E 014°07'2 2.2
2015-Feb-25 08:33N 40°47' E 014°06'5 4.7
2015-Feb-25 07:33N 40°46' E 013°60'4 3.8
2015-Feb-25 06:32N 40°45' E 013°55'7 6.7
2015-Feb-25 05:33N 40°46' E 014°04'4 3.6
2015-Feb-25 04:32N 40°49' E 014°06'7 6.9
2015-Feb-25 03:33N 40°46' E 013°58'1 0.9
2015-Feb-25 02:33N 40°46' E 013°57'7 7.3
2015-Feb-25 01:32N 40°48' E 014°06'3 3.4
2015-Feb-25 00:33N 40°46' E 014°03'6 6.2
2015-Feb-24 23:33N 40°45' E 013°55'0 0.1
2015-Feb-24 14:31N 40°45' E 013°54'0 0.0
2015-Feb-24 13:33N 40°45' E 013°54'0 0.0
2015-Feb-24 12:34N 40°45' E 013°54'0 0.0
2015-Feb-24 11:33N 40°45' E 013°54'0 0.0
2015-Feb-24 10:33N 40°45' E 013°54'5 5.5
2015-Feb-24 09:33N 40°47' E 014°01'5 5.1
2015-Feb-24 08:33N 40°49' E 014°07'5 5.4
2015-Feb-24 07:33N 40°46' E 014°02'5 5.5
2015-Feb-24 06:34N 40°45' E 013°54'8 7.9
2015-Feb-24 05:34N 40°46' E 014°05'1 1.1
2015-Feb-24 04:33N 40°47' E 014°06'8 8.2
2015-Feb-24 03:33N 40°45' E 013°55'3 2.6
2015-Feb-24 02:34N 40°46' E 013°58'6 6.2
2015-Feb-24 01:32N 40°49' E 014°06'3 2.6
2015-Feb-24 00:32N 40°46' E 014°04'8 7.6
2015-Feb-23 23:32N 40°45' E 013°54'0 0.0
2015-Feb-23 16:07N 40°45' E 013°54'0 0.0
2015-Feb-23 15:33N 40°45' E 013°54'0 0.0
2015-Feb-23 14:33N 40°45' E 013°54'0 0.0
2015-Feb-23 13:33N 40°45' E 013°54'0 0.0
2015-Feb-23 12:33N 40°45' E 013°54'0 0.0
2015-Feb-23 11:33N 40°45' E 013°54'0 0.0
2015-Feb-23 10:33N 40°45' E 013°54'4 3.8
2015-Feb-23 09:33N 40°46' E 013°59'7 5.8
2015-Feb-23 08:23N 40°49' E 014°07'4 4.3
2015-Feb-23 07:33N 40°46' E 014°05'7 6.9
2015-Feb-23 06:32N 40°45' E 013°56'  
Track history (hours):
 
Tides and Currents Weather Stations Pressure Air Temp Water Temp Dewpoint Dewpoint Depression Visibility Wind Speed Wind Dir Waves Ship Positions

Tourist.f.b.terzo

Last reported at 2015-Mar-04 14:33 UTC. Time now 2015-Mar-04 16:52 UTC.
Position N 40°45' E 013°54'.

Length 53 m; draft 1.8 m.

Type: Ship. MMSI: 247048900.

Date/timePositionNaut miles runAvg speedWind from/ knotsBaromVisibWave heightAir tempDewpointWater temp
2015-Mar-04 14:33N 40°45' E 013°54'0 0.0
2015-Mar-04 13:33N 40°45' E 013°54'0 0.0
2015-Mar-04 12:32N 40°45' E 013°54'0 0.0
2015-Mar-04 11:33N 40°45' E 013°54'1 0.8
2015-Mar-04 10:33N 40°46' E 013°55'6 6.5
2015-Mar-04 09:33N 40°46' E 014°04'4 3.9
2015-Mar-04 08:33N 40°49' E 014°07'5 5.4
2015-Mar-04 07:33N 40°46' E 014°02'5 5.5
2015-Mar-04 06:33N 40°45' E 013°54'6 6.4
2015-Mar-04 05:33N 40°46' E 014°03'4 3.9
2015-Mar-04 04:32N 40°49' E 014°06'7 7.2
2015-Mar-04 03:33N 40°46' E 013°58'0 0.3
2015-Mar-04 02:33N 40°46' E 013°58'6 6.2
2015-Mar-04 01:33N 40°47' E 014°06'1 0.8
2015-Mar-04 00:33N 40°46' E 014°05'8 8.1
2015-Mar-03 23:33N 40°45' E 013°54'0 0.0
2015-Mar-03 16:33N 40°45' E 013°54'0 0.0
2015-Mar-03 15:33N 40°45' E 013°54'0 0.0
2015-Mar-03 14:33N 40°45' E 013°54'0 0.0
2015-Mar-03 13:33N 40°45' E 013°54'0 0.0
2015-Mar-03 12:33N 40°45' E 013°54'0 0.0
2015-Mar-03 11:33N 40°45' E 013°54'1 0.8
2015-Mar-03 10:33N 40°45' E 013°55'8 8.2
2015-Mar-03 09:33N 40°47' E 014°06'0 0.1
2015-Mar-03 08:33N 40°47' E 014°06'6 5.8
2015-Mar-03 07:33N 40°46' E 013°59'1 0.5
2015-Mar-03 06:32N 40°46' E 013°59'6 5.8
2015-Mar-03 05:33N 40°48' E 014°06'1 1.1
2015-Mar-03 04:33N 40°47' E 014°06'8 8.2
2015-Mar-03 03:33N 40°45' E 013°55'4 3.6
2015-Mar-03 02:33N 40°46' E 013°60'6 5.6
2015-Mar-03 01:32N 40°49' E 014°06'4 3.9
2015-Mar-03 00:33N 40°46' E 014°03'6 6.4
2015-Mar-02 23:33N 40°45' E 013°55'0 0.0
2015-Mar-02 14:05N 40°45' E 013°54'0 0.0
2015-Mar-02 12:33N 40°45' E 013°54'0 0.0
2015-Mar-02 11:33N 40°45' E 013°54'3 2.9
2015-Mar-02 10:33N 40°46' E 013°58'7 7.1
2015-Mar-02 09:33N 40°49' E 014°06'10 1.0
2015-Mar-01 23:33N 40°45' E 013°55'0 0.0
2015-Feb-28 10:13N 40°45' E 013°54'0 0.0
2015-Feb-28 09:33N 40°45' E 013°54'5 5.5
2015-Feb-28 08:33N 40°47' E 014°01'5 5.1
2015-Feb-28 07:33N 40°49' E 014°07'0 0.0
2015-Feb-28 06:33N 40°49' E 014°07'3 3.5
2015-Feb-28 05:33N 40°46' E 014°05'3 2.7
2015-Feb-28 04:33N 40°49' E 014°06'4 4.0
2015-Feb-28 03:33N 40°47' E 014°02'6 6.0
2015-Feb-28 02:34N 40°45' E 013°54'8 7.8
2015-Feb-28 01:34N 40°46' E 014°05'1 0.7
2015-Feb-28 00:34N 40°47' E 014°06'9 8.5
2015-Feb-27 23:33N 40°45' E 013°55'0 0.0
2015-Feb-27 18:33N 40°45' E 013°54'0 0.0
2015-Feb-27 17:33N 40°45' E 013°54'0 0.0
2015-Feb-27 16:33N 40°45' E 013°54'0 0.0
2015-Feb-27 15:33N 40°45' E 013°54'0 0.0
2015-Feb-27 14:33N 40°45' E 013°54'0 0.0
2015-Feb-27 13:33N 40°45' E 013°54'0 0.0
2015-Feb-27 12:33N 40°45' E 013°54'0 0.0
2015-Feb-27 11:33N 40°45' E 013°54'3 2.9
2015-Feb-27 10:32N 40°46' E 013°58'8 7.6
2015-Feb-27 09:33N 40°49' E 014°07'0 0.1
2015-Feb-27 08:33N 40°49' E 014°07'5 5.2
2015-Feb-27 07:33N 40°46' E 014°02'4 4.3
2015-Feb-27 06:33N 40°46' E 013°56'7 7.4
2015-Feb-27 05:33N 40°47' E 014°06'1 0.9
2015-Feb-27 04:32N 40°48' E 014°06'8 7.7
2015-Feb-27 03:30N 40°46' E 013°56'3 2.8
2015-Feb-27 02:33N 40°46' E 013°59'6 5.7
2015-Feb-27 01:33N 40°48' E 014°06'3 2.7
2015-Feb-27 00:33N 40°46' E 014°04'6 6.5
2015-Feb-26 23:33N 40°45' E 013°55'1 0.2
2015-Feb-26 18:34N 40°45' E 013°54'0 0.0
2015-Feb-26 17:33N 40°45' E 013°54'0 0.0
2015-Feb-26 16:33N 40°45' E 013°54'0 0.0
2015-Feb-26 15:33N 40°45' E 013°54'0 0.0
2015-Feb-26 14:33N 40°45' E 013°54'0 0.0
2015-Feb-26 13:34N 40°45' E 013°54'0 0.0
2015-Feb-26 12:34N 40°45' E 013°54'0 0.0
2015-Feb-26 11:33N 40°45' E 013°54'0 0.0
2015-Feb-26 10:33N 40°45' E 013°54'9 8.7
2015-Feb-26 09:33N 40°47' E 014°06'2 2.3
2015-Feb-26 08:32N 40°49' E 014°06'5 5.4
2015-Feb-26 07:33N 40°46' E 014°00'3 3.2
2015-Feb-26 06:33N 40°46' E 013°56'7 7.1
2015-Feb-26 05:33N 40°46' E 014°05'1 1.2
2015-Feb-26 04:33N 40°48' E 014°06'8 8.0
2015-Feb-26 03:33N 40°45' E 013°56'3 2.9
2015-Feb-26 02:33N 40°46' E 013°60'6 6.0
2015-Feb-26 01:33N 40°49' E 014°06'5 4.7
2015-Feb-26 00:33N 40°46' E 014°02'6 5.5
2015-Feb-25 23:33N 40°45' E 013°54'0 0.0
2015-Feb-25 22:33N 40°45' E 013°54'0 0.0
2015-Feb-25 21:33N 40°45' E 013°54'0 0.0
2015-Feb-25 12:31N 40°45' E 013°54'0 0.0
2015-Feb-25 11:33N 40°45' E 013°54'6 5.9
2015-Feb-25 10:33N 40°46' E 014°02'5 4.9
2015-Feb-25 09:33N 40°49' E 014°07'2 2.2
2015-Feb-25 08:33N 40°47' E 014°06'5 4.7
2015-Feb-25 07:33N 40°46' E 013°60'4 3.8
2015-Feb-25 06:32N 40°45' E 013°55'7 6.7
2015-Feb-25 05:33N 40°46' E 014°04'4 3.6
2015-Feb-25 04:32N 40°49' E 014°06'7 6.9
2015-Feb-25 03:33N 40°46' E 013°58'1 0.9
2015-Feb-25 02:33N 40°46' E 013°57'7 7.3
2015-Feb-25 01:32N 40°48' E 014°06'3 3.4
2015-Feb-25 00:33N 40°46' E 014°03'6 6.2
2015-Feb-24 23:33N 40°45' E 013°55'0 0.1
2015-Feb-24 14:31N 40°45' E 013°54'0 0.0
2015-Feb-24 13:33N 40°45' E 013°54'0 0.0
2015-Feb-24 12:34N 40°45' E 013°54'0 0.0
2015-Feb-24 11:33N 40°45' E 013°54'0 0.0
2015-Feb-24 10:33N 40°45' E 013°54'5 5.5
2015-Feb-24 09:33N 40°47' E 014°01'5 5.1
2015-Feb-24 08:33N 40°49' E 014°07'5 5.4
2015-Feb-24 07:33N 40°46' E 014°02'5 5.5
2015-Feb-24 06:34N 40°45' E 013°54'8 7.9
2015-Feb-24 05:34N 40°46' E 014°05'1 1.1
2015-Feb-24 04:33N 40°47' E 014°06'8 8.2
2015-Feb-24 03:33N 40°45' E 013°55'3 2.6
2015-Feb-24 02:34N 40°46' E 013°58'6 6.2
2015-Feb-24 01:32N 40°49' E 014°06'3 2.6
2015-Feb-24 00:32N 40°46' E 014°04'8 7.6
2015-Feb-23 23:32N 40°45' E 013°54'0 0.0
2015-Feb-23 16:07N 40°45' E 013°54'0 0.0
2015-Feb-23 15:33N 40°45' E 013°54'0 0.0
2015-Feb-23 14:33N 40°45' E 013°54'0 0.0
2015-Feb-23 13:33N 40°45' E 013°54'0 0.0
2015-Feb-23 12:33N 40°45' E 013°54'0 0.0
2015-Feb-23 11:33N 40°45' E 013°54'0 0.0
2015-Feb-23 10:33N 40°45' E 013°54'4 3.8
2015-Feb-23 09:33N 40°46' E 013°59'7 5.8
2015-Feb-23 08:23N 40°49' E 014°07'4 4.3
2015-Feb-23 07:33N 40°46' E 014°05'7 6.9
2015-Feb-23 06:32N 40°45' E 013°56'  

Dump ship's entire track history